Latest Weather Observations for Goulburn Airport

IDN60901

Issued at 9:51 pm EDT Thursday 19 January 2017 (issued every 10 minutes, with the page automatically refreshed every 10 minutes)

About weather observations | Map of Canberra area stations | Latest observations for Canberra area | Other Formats
Station Details ID: 070330 Name: GOULBURN AIRPORT AWS Lat: -34.81 Lon: 149.73 Height: 640.0 m
Data from the previous 72 hours. | See also: Recent months at Goulburn Airport
Date/Time
EDT
Temp
°C
App
Temp
°C
Dew
Point
°C
Rel
Hum
%
Delta-T
°C
Wind Press
QNH
hPa
Press
MSL
hPa
Rain since
9am
mm
Dir  Spd
km/h
Gust
km/h
Spd
kts
Gust
kts
19/09:30pm 15.9 13.5 12.6 81 1.9 NE 17 30 9 16 1011.8 1008.8 0.0
19/09:00pm 15.9 11.4 12.6 81 1.9 NE 28 35 15 19 1011.9 1008.9 0.0
19/08:30pm 15.9 12.6 12.8 82 1.8 NE 22 32 12 17 1011.9 1008.9 0.0
19/08:00pm 16.0 12.7 12.7 81 1.9 NE 22 33 12 18 1011.8 1008.8 0.0
19/07:30pm 16.6 13.3 12.8 78 2.2 NE 22 32 12 17 1011.9 1008.9 0.0
19/07:00pm 16.9 12.5 12.8 77 2.4 NE 28 39 15 21 1011.8 1008.8 0.0
19/06:30pm 17.5 13.1 12.8 74 2.7 ENE 28 37 15 20 1012.0 1009.0 0.0
19/06:10pm 17.9 13.5 13.0 73 2.8 ENE 28 39 15 21 1011.9 1008.9 0.0
19/06:00pm 18.1 13.7 12.8 71 3.1 ENE 28 35 15 19 1011.9 1008.9 0.0
19/05:30pm 18.6 14.5 12.8 69 3.4 ENE 26 37 14 20 1012.0 1009.0 0.0
19/05:00pm 19.9 15.7 13.4 66 3.8 ENE 28 35 15 19 1012.4 1009.5 0.0
19/04:30pm 20.0 15.5 12.7 63 4.2 ENE 28 39 15 21 1012.6 1009.7 0.0
19/04:00pm 20.5 15.4 13.2 63 4.3 ENE 32 39 17 21 1013.0 1010.1 0.0
19/03:30pm 21.1 16.9 13.5 62 4.5 ENE 28 37 15 20 1013.4 1010.4 0.0
19/03:00pm 19.4 14.7 11.9 62 4.3 ENE 28 41 15 22 1013.7 1010.8 0.0
19/02:32pm 19.3 15.2 12.8 66 3.8 ENE 26 37 14 20 1014.1 1011.2 0.0
19/02:30pm 18.9 14.7 12.4 66 3.7 NE 26 37 14 20 1014.0 1011.1 0.0
19/02:00pm 17.7 13.9 12.4 71 3.0 ENE 24 37 13 20 1014.5 1011.6 0.0
19/01:30pm 16.7 13.6 12.3 75 2.5 ENE 20 28 11 15 1015.0 1012.0 0.0
19/01:00pm 16.4 13.7 12.8 79 2.1 ENE 19 26 10 14 1015.3 1012.4 0.0
19/12:30pm 15.7 12.9 12.5 81 1.8 ENE 19 28 10 15 1015.5 1012.6 0.0
19/12:00pm 14.9 11.5 12.4 85 1.4 E 22 28 12 15 1015.8 1012.9 0.0
19/11:30am 15.0 12.4 12.1 83 1.6 E 17 24 9 13 1016.1 1013.2 0.0
19/11:00am 15.4 12.8 12.0 80 1.9 E 17 24 9 13 1016.1 1013.2 0.0
19/10:30am 14.9 12.7 12.2 84 1.5 ESE 15 22 8 12 1016.1 1013.2 0.0
19/10:00am 14.5 11.8 11.8 84 1.5 ENE 17 20 9 11 1016.3 1013.4 0.0
19/09:30am 14.1 11.5 12.0 87 1.2 ENE 17 22 9 12 1016.8 1013.9 0.0
19/09:00am 13.9 11.2 11.6 86 1.3 E 17 24 9 13 1016.8 1013.9 0.0
19/08:30am 13.5 11.2 11.7 89 1.0 E 15 19 8 10 1016.9 1014.0 0.0
19/08:00am 13.1 10.7 11.5 90 0.9 E 15 20 8 11 1016.8 1013.9 0.0
19/07:30am 12.9 10.6 11.6 92 0.7 E 15 20 8 11 1016.6 1013.7 0.0
19/07:00am 12.9 11.0 11.8 93 0.6 E 13 19 7 10 1016.4 1013.6 0.0
19/06:30am 12.8 10.9 11.9 94 0.5 E 13 15 7 8 1016.2 1013.3 0.0
19/06:28am 12.8 10.9 11.9 94 0.5 E 13 17 7 9 1016.2 1013.3 0.0
19/06:00am 12.8 10.4 11.5 92 0.7 E 15 22 8 12 1015.9 1013.0 0.0
19/05:57am 12.8 10.4 11.5 92 0.7 E 15 22 8 12 1015.8 1012.9 0.0
19/05:30am 13.3 10.5 11.2 87 1.1 E 17 20 9 11 1015.7 1012.8 0.0
19/05:00am 13.5 10.6 11.0 85 1.4 E 17 24 9 13 1015.6 1012.7 0.0
19/04:30am 13.7 10.5 11.2 85 1.4 E 19 24 10 13 1015.5 1012.6 0.0
19/04:00am 13.7 11.3 11.4 86 1.3 E 15 22 8 12 1015.7 1012.8 0.0
19/03:30am 13.7 10.6 11.6 87 1.2 E 19 24 10 13 1015.7 1012.8 0.0
19/03:00am 13.7 10.7 11.8 88 1.1 E 19 26 10 14 1015.9 1013.0 0.0
19/02:30am 13.8 10.5 11.7 87 1.2 E 20 32 11 17 1016.3 1013.4 0.0
19/02:04am 13.9 10.3 11.8 87 1.2 E 22 30 12 16 1016.7 1013.8 0.0
19/02:00am 13.9 10.3 11.8 87 1.2 E 22 30 12 16 1016.8 1013.9 0.0
19/01:34am 14.0 9.3 11.9 87 1.2 E 28 37 15 20 1016.9 1014.0 0.0
19/01:30am 14.0 9.7 12.0 88 1.1 E 26 37 14 20 1016.9 1014.0 0.0
19/01:00am 14.2 11.3 12.9 92 0.7 E 20 30 11 16 1017.0 1014.1 0.0
19/12:30am 14.4 10.7 12.8 90 0.9 E 24 33 13 18 1017.1 1014.2 0.0
19/12:11am 14.6 11.0 13.1 91 0.9 E 24 33 13 18 1017.1 1014.2 0.0
19/12:00am 14.7 11.1 13.2 91 0.9 E 24 35 13 19 1017.0 1014.1 0.0
 
Date/Time
EDT
Temp
°C
App
Temp
°C
Dew
Point
°C
Rel
Hum
%
Delta-T
°C
Wind Press
QNH
hPa
Press
MSL
hPa
Rain since
9am
mm
Dir  Spd
km/h
Gust
km/h
Spd
kts
Gust
kts
18/11:51pm 14.9 11.8 13.4 91 0.9 E 22 32 12 17 1017.0 1014.1 0.0
18/11:30pm 15.6 13.0 13.8 89 1.0 E 20 32 11 17 1016.9 1014.0 0.0
18/11:00pm 15.8 13.3 14.0 89 1.0 E 20 28 11 15 1016.8 1013.9 0.0
18/10:30pm 16.2 13.2 13.7 85 1.5 E 22 30 12 16 1016.6 1013.7 0.0
18/10:00pm 16.4 13.7 13.5 83 1.7 E 20 30 11 16 1016.3 1013.4 0.0
18/09:30pm 16.6 12.9 13.9 84 1.6 E 26 35 14 19 1015.9 1013.0 0.0
18/09:00pm 17.2 13.9 14.1 82 1.8 ENE 24 33 13 18 1015.3 1012.4 0.0
18/08:30pm 17.5 15.2 14.6 83 1.7 ENE 20 28 11 15 1014.6 1011.7 0.0
18/08:00pm 18.4 15.4 14.9 80 2.1 ENE 24 32 13 17 1013.5 1010.5 0.0
18/07:59pm 18.5 15.9 15.0 80 2.1 ENE 22 32 12 17 1013.5 1010.5 0.0
18/07:30pm 18.8 15.1 14.9 78 2.3 E 28 37 15 20 1013.0 1010.1 0.0
18/07:00pm 20.5 17.7 15.3 72 3.2 E 24 33 13 18 1012.5 1009.6 0.0
18/06:30pm 22.0 18.0 15.1 65 4.2 ESE 30 41 16 22 1011.3 1008.4 0.0
18/06:00pm 26.4 22.4 15.1 49 7.0 SE 30 43 16 23 1010.3 1007.3 0.0
18/05:47pm 28.9 23.6 13.2 38 9.5 SSW 33 50 18 27 1010.1 1007.1 0.0
18/05:30pm 33.0 26.1 7.1 20 14.6 SW 33 54 18 29 1009.3 1006.3 0.0
18/05:29pm 33.3 26.4 6.6 19 14.9 SW 32 50 17 27 1009.3 1006.3 0.0
18/05:00pm 33.9 26.5 1.6 13 16.8 WSW 30 48 16 26 1009.1 1006.1 0.0
18/04:30pm 34.5 26.0 1.0 12 17.2 W 35 48 19 26 1009.1 1006.1 0.0
18/04:11pm 35.0 24.7 -1.1 10 18.0 W 43 61 23 33 1009.1 1006.1 0.0
18/04:00pm 36.0 25.2 -0.4 10 18.5 W 46 57 25 31 1009.0 1006.0 0.0
18/03:30pm 36.2 25.8 -1.7 9 18.9 W 43 63 23 34 1009.2 1006.2 0.0
18/03:00pm 36.7 26.2 -1.3 9 19.2 WSW 44 69 24 37 1009.2 1006.2 0.0
18/02:53pm 36.5 25.9 -3.0 8 19.3 W 43 61 23 33 1009.1 1006.1 0.0
18/02:52pm 37.2 26.9 -0.9 9 19.3 W 43 57 23 31 1009.1 1006.1 0.0
18/02:47pm 37.0 26.7 -1.1 9 19.3 W 43 63 23 34 1009.0 1006.0 0.0
18/02:35pm 36.4 25.8 -3.1 8 19.3 WSW 43 65 23 35 1009.2 1006.2 0.0
18/02:30pm 37.2 26.9 -0.9 9 19.3 WSW 43 59 23 32 1009.2 1006.2 0.0
18/02:00pm 37.3 27.8 -0.9 9 19.4 W 39 59 21 32 1009.1 1006.1 0.0
18/01:30pm 37.4 26.6 -0.8 9 19.5 W 46 67 25 36 1009.3 1006.3 0.0
18/01:00pm 36.8 26.3 -1.2 9 19.2 W 44 65 24 35 1009.3 1006.3 0.0
18/12:36pm 36.6 26.3 0.1 10 18.8 W 44 63 24 34 1009.2 1006.2 0.0
18/12:30pm 36.7 25.6 0.1 10 18.8 W 48 63 26 34 1009.4 1006.4 0.0
18/12:10pm 36.5 27.1 0.0 10 18.7 W 39 59 21 32 1009.2 1006.2 0.0
18/12:05pm 36.7 27.0 2.7 12 18.2 W 43 69 23 37 1009.3 1006.3 0.0
18/12:00pm 36.7 27.0 2.7 12 18.2 WNW 43 69 23 37 1009.2 1006.2 0.0
18/11:43am 36.1 27.5 4.4 14 17.4 W 39 67 21 36 1009.2 1006.2 0.0
18/11:41am 36.8 27.9 4.9 14 17.7 WNW 41 67 22 36 1009.2 1006.2 0.0
18/11:30am 35.8 26.4 4.2 14 17.2 WNW 43 61 23 33 1009.1 1006.1 0.0
18/11:28am 36.2 26.6 3.4 13 17.7 WNW 43 61 23 33 1009.0 1006.0 0.0
18/11:00am 35.4 28.0 6.6 17 16.3 NW 35 48 19 26 1009.1 1006.1 0.0
18/10:30am 34.3 26.8 8.1 20 15.1 NW 37 52 20 28 1009.3 1006.3 0.0
18/10:00am 33.1 25.5 10.4 25 13.5 NW 41 50 22 27 1009.3 1006.3 0.0
18/09:30am 32.5 25.0 9.3 24 13.5 WNW 39 54 21 29 1009.7 1006.8 0.0
18/09:00am 32.2 26.2 10.8 27 12.7 WNW 33 44 18 24 1009.7 1006.8 0.0
18/08:30am 31.1 26.3 11.5 30 11.7 WNW 28 35 15 19 1009.6 1006.7 0.0
18/08:00am 29.5 27.0 14.1 39 9.5 NW 20 32 11 17 1009.7 1006.8 0.0
18/07:30am 28.3 25.5 14.2 42 8.7 NW 22 30 12 16 1009.6 1006.7 0.0
18/07:00am 26.8 24.3 14.2 46 7.7 NW 20 28 11 15 1009.1 1006.1 0.0
18/06:30am 24.8 23.6 14.0 51 6.5 NW 13 19 7 10 1008.9 1005.9 0.0
18/06:00am 25.1 23.5 13.9 49 6.8 WNW 15 19 8 10 1008.5 1005.5 0.0
18/05:30am 26.3 24.0 14.1 47 7.5 WNW 19 24 10 13 1007.9 1004.9 0.0
18/05:00am 27.9 24.2 13.8 42 8.6 WNW 26 35 14 19 1007.6 1004.6 0.0
18/04:30am 28.2 24.6 14.1 42 8.7 NW 26 35 14 19 1007.3 1004.3 0.0
18/04:00am 28.7 25.1 14.1 40 9.0 NW 26 35 14 19 1007.4 1004.4 0.0
18/03:30am 27.1 25.8 14.8 47 7.6 NW 15 20 8 11 1007.6 1004.6 0.0
18/03:00am 25.3 24.6 15.3 54 6.2 NNW 13 15 7 8 1007.9 1004.9 0.0
18/02:30am 24.3 24.3 15.2 57 5.6 WSW 9 11 5 6 1008.5 1005.5 0.0
18/02:00am 27.0 25.9 15.4 49 7.3 NW 15 20 8 11 1008.8 1005.8 0.0
18/01:30am 27.3 26.0 15.7 49 7.3 NW 17 22 9 12 1009.0 1006.0 0.0
18/01:20am 26.8 26.1 16.4 53 6.6 NW 15 22 8 12 1009.2 1006.2 0.0
18/01:00am 21.5 23.2 16.2 72 3.3 S 2 7 1 4 1009.5 1006.6 0.0
18/12:30am 21.9 24.1 16.6 72 3.3 CALM 0 0 0 0 1010.1 1007.1 0.0
18/12:00am 22.4 23.9 15.7 66 4.1 S 2 6 1 3 1010.3 1007.3 0.0
 
Date/Time
EDT
Temp
°C
App
Temp
°C
Dew
Point
°C
Rel
Hum
%
Delta-T
°C
Wind Press
QNH
hPa
Press
MSL
hPa
Rain since
9am
mm
Dir  Spd
km/h
Gust
km/h
Spd
kts
Gust
kts
17/11:30pm 23.4 25.4 16.0 63 4.6 CALM 0 0 0 0 1010.7 1007.7 0.0
17/11:00pm 24.7 26.9 16.4 60 5.2 CALM 0 0 0 0 1011.0 1008.1 0.0
17/10:30pm 25.4 25.8 16.3 57 5.7 SSW 9 11 5 6 1011.3 1008.4 0.0
17/10:00pm 26.5 26.7 15.8 51 6.7 N 9 11 5 6 1011.4 1008.5 0.0
17/09:30pm 27.5 27.4 16.1 49 7.2 N 11 19 6 10 1011.4 1008.5 0.0
17/09:00pm 27.4 27.1 16.4 51 7.0 N 13 17 7 9 1011.3 1008.4 0.0
17/08:30pm 28.0 27.5 16.0 48 7.6 N 13 15 7 8 1011.1 1008.2 0.0
17/08:00pm 30.6 29.8 15.1 39 9.8 NNW 13 17 7 9 1011.1 1008.2 0.0
17/07:30pm 32.1 30.9 15.1 35 10.8 N 15 19 8 10 1011.1 1008.2 0.0
17/07:00pm 32.9 31.8 15.4 35 11.2 N 15 22 8 12 1011.0 1008.1 0.0
17/06:30pm 32.6 31.2 15.6 36 10.9 N 17 20 9 11 1011.2 1008.3 0.0
17/06:00pm 31.6 29.7 15.1 36 10.4 NW 19 24 10 13 1011.7 1008.7 0.0
17/05:30pm 31.9 27.3 14.5 34 10.9 WNW 32 46 17 25 1011.9 1008.9 0.0
17/05:00pm 33.4 28.4 13.5 30 12.4 WNW 32 59 17 32 1011.3 1008.4 0.0
17/04:59pm 33.6 28.9 13.1 29 12.7 WNW 30 59 16 32 1011.2 1008.3 0.0
17/04:30pm 35.3 32.4 12.9 26 13.9 W 20 33 11 18 1011.0 1008.1 0.0
17/04:00pm 36.0 32.7 12.9 25 14.4 WNW 22 33 12 18 1011.3 1008.4 0.0
17/03:37pm 36.1 31.3 11.7 23 14.9 W 28 48 15 26 1011.7 1008.7 0.0
17/03:30pm 35.1 30.3 11.5 24 14.3 WSW 28 43 15 23 1011.7 1008.7 0.0
17/03:17pm 35.6 30.7 11.3 23 14.7 W 28 46 15 25 1011.8 1008.8 0.0
17/03:00pm 36.5 32.2 12.0 23 15.1 W 26 43 14 23 1012.1 1009.1 0.0
17/02:30pm 35.3 30.1 12.9 26 13.9 W 32 44 17 24 1012.6 1009.7 0.0
17/02:20pm 35.8 30.6 12.7 25 14.3 W 32 54 17 29 1012.8 1009.9 0.0
17/02:00pm 35.5 31.0 12.5 25 14.2 WNW 28 43 15 23 1013.0 1010.1 0.0
17/01:30pm 35.7 30.1 11.4 23 14.8 WNW 32 44 17 24 1013.6 1010.6 0.0
17/01:02pm 33.8 27.1 9.8 23 14.1 W 35 56 19 30 1014.0 1011.1 0.0
17/01:00pm 34.6 27.6 9.8 22 14.7 WNW 37 56 20 30 1013.9 1011.0 0.0
17/12:35pm 34.5 27.5 8.3 20 15.1 W 35 56 19 30 1014.4 1011.5 0.0
17/12:30pm 35.0 29.0 10.1 22 14.8 WNW 32 48 17 26 1014.4 1011.5 0.0
17/12:00pm 34.2 27.2 10.1 23 14.3 WNW 37 59 20 32 1014.7 1011.8 0.0
17/11:30am 34.1 26.4 8.7 21 14.7 NW 39 57 21 31 1014.9 1011.9 0.0
17/11:21am 34.0 27.8 7.9 20 14.9 WNW 30 54 16 29 1014.9 1011.9 0.0
17/11:00am 33.6 27.0 7.6 20 14.8 NW 32 44 17 24 1014.9 1011.9 0.0
17/10:30am 32.8 27.1 8.3 22 14.0 WNW 28 39 15 21 1015.1 1012.2 0.0
17/10:00am 32.6 26.3 7.4 21 14.2 NW 30 39 16 21 1015.3 1012.4 0.0
17/09:30am 31.0 27.7 10.9 29 11.9 NNW 19 26 10 14 1015.6 1012.7 0.0
17/09:00am 26.6 25.8 14.0 46 7.7 N 11 17 6 9 1016.1 1013.2 0.0
17/08:30am 22.4 22.7 15.0 63 4.5 ESE 7 13 4 7 1016.3 1013.4 0.0
17/08:00am 18.9 21.1 16.5 86 1.5 CALM 0 0 0 0 1016.6 1013.7 0.0
17/07:30am 15.4 17.1 15.1 98 0.2 CALM 0 0 0 0 1016.4 1013.6 0.0
17/07:17am 14.1 14.2 13.8 98 0.2 SSE 6 9 3 5 1016.2 1013.3 0.0
17/07:05am 13.4 14.0 13.1 98 0.2 SE 2 7 1 4 1016.2 1013.3 0.0
17/07:00am 13.0 13.8 12.7 98 0.2 CALM 0 0 0 0 1016.3 1013.4 0.0
17/06:30am 11.5 11.8 11.0 97 0.3 CALM 0 0 0 0 1015.8 1012.9 0.0
17/06:17am 11.5 11.8 11.0 97 0.3 CALM 0 0 0 0 1015.7 1012.8 0.0
17/06:00am 11.5 11.8 11.0 97 0.3 CALM 0 0 0 0 1015.7 1012.8 0.0
17/05:30am 11.4 11.6 10.6 95 0.4 CALM 0 0 0 0 1015.5 1012.6 0.0
17/05:29am 11.4 11.6 10.6 95 0.4 CALM 0 0 0 0 1015.5 1012.6 0.0
17/05:00am 11.6 11.8 10.7 94 0.5 CALM 0 0 0 0 1015.2 1012.3 0.0
17/04:30am 12.5 13.0 11.7 95 0.4 CALM 0 0 0 0 1015.0 1012.0 0.0
17/04:29am 12.6 13.2 11.8 95 0.4 CALM 0 0 0 0 1015.0 1012.0 0.0
17/04:16am 12.9 13.6 12.1 95 0.4 CALM 0 0 0 0 1015.0 1012.0 0.0
17/04:00am 13.3 14.1 12.5 95 0.4 CALM 0 0 0 0 1015.1 1012.2 0.0
17/03:52am 13.2 14.0 12.4 95 0.4 CALM 0 0 0 0 1015.2 1012.3 0.0
17/03:30am 12.9 12.3 11.6 92 0.7 SE 6 7 3 4 1015.3 1012.4 0.0
17/03:00am 14.0 14.8 12.6 91 0.8 CALM 0 0 0 0 1015.5 1012.6 0.0
17/02:30am 14.7 15.0 13.4 92 0.7 SSW 4 7 2 4 1015.5 1012.6 0.0
17/02:00am 15.5 15.7 14.2 92 0.8 SSW 6 9 3 5 1015.9 1013.0 0.0
17/01:30am 15.6 16.5 14.0 90 0.9 SSW 2 9 1 5 1016.2 1013.3 0.0
17/01:00am 16.8 17.2 14.8 88 1.2 SSW 6 7 3 4 1016.3 1013.4 0.0
17/12:30am 17.4 18.1 14.5 83 1.7 SSW 4 9 2 5 1016.8 1013.9 0.0
17/12:00am 19.2 19.5 16.1 82 1.9 SE 9 11 5 6 1017.0 1014.1 0.0
 
Date/Time
EDT
Temp
°C
App
Temp
°C
Dew
Point
°C
Rel
Hum
%
Delta-T
°C
Wind Press
QNH
hPa
Press
MSL
hPa
Rain since
9am
mm
Dir  Spd
km/h
Gust
km/h
Spd
kts
Gust
kts
16/11:30pm 19.3 19.6 16.0 81 2.0 ESE 9 13 5 7 1017.1 1014.2 0.0
16/11:00pm 20.7 20.0 16.5 77 2.6 SE 15 17 8 9 1017.2 1014.3 0.0
16/10:30pm 21.6 21.2 16.3 72 3.3 SSE 13 22 7 12 1017.0 1014.1 0.0
16/10:00pm 23.0 24.1 16.5 67 4.1 SW 6 17 3 9 1016.9 1014.0 0.0

Latest Capital City Observations: Canberra | Sydney | Melbourne | Brisbane | Adelaide | Perth | Hobart | Darwin

Other Formats:

Comma delimited format used in spreadsheet applications
http://www.bom.gov.au/fwo/IDN60903/IDN60903.95716.axf

JavaScript Object Notation format (JSON) in row-major order
http://www.bom.gov.au/fwo/IDN60903/IDN60903.95716.json